sensor_id;sensor_type;location;lat;lon;timestamp;P1;durP1;ratioP1;P2;durP2;ratioP2
8871;SDS011;4472;52.092;9.820;2023-07-08T00:01:55;4.53;;;4.10;;
8871;SDS011;4472;52.092;9.820;2023-07-08T00:04:42;9.70;;;4.63;;
8871;SDS011;4472;52.092;9.820;2023-07-08T00:07:29;6.23;;;4.07;;
8871;SDS011;4472;52.092;9.820;2023-07-08T00:10:17;6.57;;;4.30;;
8871;SDS011;4472;52.092;9.820;2023-07-08T00:13:07;7.80;;;4.50;;
8871;SDS011;4472;52.092;9.820;2023-07-08T00:15:55;5.27;;;4.00;;
8871;SDS011;4472;52.092;9.820;2023-07-08T00:18:42;4.57;;;4.17;;
8871;SDS011;4472;52.092;9.820;2023-07-08T00:21:30;4.50;;;4.03;;
8871;SDS011;4472;52.092;9.820;2023-07-08T00:24:17;4.10;;;3.63;;
8871;SDS011;4472;52.092;9.820;2023-07-08T00:27:04;5.40;;;4.03;;
8871;SDS011;4472;52.092;9.820;2023-07-08T00:29:53;5.10;;;3.93;;
8871;SDS011;4472;52.092;9.820;2023-07-08T00:32:40;5.10;;;4.30;;
8871;SDS011;4472;52.092;9.820;2023-07-08T00:35:28;4.37;;;4.00;;
8871;SDS011;4472;52.092;9.820;2023-07-08T00:38:19;4.33;;;3.93;;
8871;SDS011;4472;52.092;9.820;2023-07-08T00:41:12;4.47;;;4.07;;
8871;SDS011;4472;52.092;9.820;2023-07-08T00:44:03;5.33;;;3.93;;
8871;SDS011;4472;52.092;9.820;2023-07-08T00:46:53;4.70;;;4.10;;
8871;SDS011;4472;52.092;9.820;2023-07-08T00:49:45;4.43;;;3.90;;
8871;SDS011;4472;52.092;9.820;2023-07-08T00:52:36;4.37;;;3.97;;
8871;SDS011;4472;52.092;9.820;2023-07-08T00:55:23;6.50;;;4.30;;
8871;SDS011;4472;52.092;9.820;2023-07-08T00:58:10;5.03;;;4.23;;
8871;SDS011;4472;52.092;9.820;2023-07-08T01:00:57;9.50;;;4.40;;
8871;SDS011;4472;52.092;9.820;2023-07-08T01:03:47;4.23;;;3.83;;
8871;SDS011;4472;52.092;9.820;2023-07-08T01:06:39;5.47;;;4.00;;
8871;SDS011;4472;52.092;9.820;2023-07-08T01:09:30;6.30;;;4.23;;
8871;SDS011;4472;52.092;9.820;2023-07-08T01:12:23;5.20;;;4.17;;
8871;SDS011;4472;52.092;9.820;2023-07-08T01:15:13;5.07;;;4.40;;
8871;SDS011;4472;52.092;9.820;2023-07-08T01:18:01;8.10;;;4.00;;
8871;SDS011;4472;52.092;9.820;2023-07-08T01:20:50;8.07;;;4.30;;
8871;SDS011;4472;52.092;9.820;2023-07-08T01:23:41;4.60;;;4.20;;
8871;SDS011;4472;52.092;9.820;2023-07-08T01:26:29;6.17;;;4.40;;
8871;SDS011;4472;52.092;9.820;2023-07-08T01:29:17;6.00;;;4.80;;
8871;SDS011;4472;52.092;9.820;2023-07-08T01:32:04;4.67;;;4.00;;
8871;SDS011;4472;52.092;9.820;2023-07-08T01:34:52;5.47;;;4.43;;
8871;SDS011;4472;52.092;9.820;2023-07-08T01:37:47;5.20;;;3.90;;
8871;SDS011;4472;52.092;9.820;2023-07-08T01:40:39;7.20;;;4.70;;
8871;SDS011;4472;52.092;9.820;2023-07-08T01:43:35;4.77;;;4.10;;
8871;SDS011;4472;52.092;9.820;2023-07-08T01:46:23;7.13;;;4.47;;
8871;SDS011;4472;52.092;9.820;2023-07-08T01:49:12;5.70;;;4.27;;
8871;SDS011;4472;52.092;9.820;2023-07-08T01:51:59;5.60;;;4.40;;
8871;SDS011;4472;52.092;9.820;2023-07-08T01:54:53;7.30;;;4.60;;
8871;SDS011;4472;52.092;9.820;2023-07-08T01:57:43;13.70;;;4.50;;
8871;SDS011;4472;52.092;9.820;2023-07-08T02:00:30;5.57;;;4.40;;
8871;SDS011;4472;52.092;9.820;2023-07-08T02:03:17;5.00;;;4.50;;
8871;SDS011;4472;52.092;9.820;2023-07-08T02:06:04;4.57;;;4.17;;
8871;SDS011;4472;52.092;9.820;2023-07-08T02:08:52;4.83;;;4.23;;
8871;SDS011;4472;52.092;9.820;2023-07-08T02:11:40;5.33;;;4.37;;
8871;SDS011;4472;52.092;9.820;2023-07-08T02:14:28;7.30;;;4.70;;
8871;SDS011;4472;52.092;9.820;2023-07-08T02:17:15;7.83;;;4.50;;
8871;SDS011;4472;52.092;9.820;2023-07-08T02:20:03;5.97;;;4.60;;
8871;SDS011;4472;52.092;9.820;2023-07-08T02:22:51;6.10;;;4.70;;
8871;SDS011;4472;52.092;9.820;2023-07-08T02:25:38;5.27;;;4.77;;
8871;SDS011;4472;52.092;9.820;2023-07-08T02:28:25;5.40;;;4.77;;
8871;SDS011;4472;52.092;9.820;2023-07-08T02:31:14;7.23;;;4.97;;
8871;SDS011;4472;52.092;9.820;2023-07-08T02:34:01;9.97;;;4.57;;
8871;SDS011;4472;52.092;9.820;2023-07-08T02:36:48;5.47;;;4.43;;
8871;SDS011;4472;52.092;9.820;2023-07-08T02:39:36;7.03;;;4.63;;
8871;SDS011;4472;52.092;9.820;2023-07-08T02:42:23;10.57;;;4.60;;
8871;SDS011;4472;52.092;9.820;2023-07-08T02:45:10;5.47;;;4.93;;
8871;SDS011;4472;52.092;9.820;2023-07-08T02:47:59;7.50;;;5.03;;
8871;SDS011;4472;52.092;9.820;2023-07-08T02:50:46;5.63;;;4.67;;
8871;SDS011;4472;52.092;9.820;2023-07-08T02:53:34;5.17;;;4.30;;
8871;SDS011;4472;52.092;9.820;2023-07-08T02:56:21;4.70;;;4.20;;
8871;SDS011;4472;52.092;9.820;2023-07-08T02:59:09;6.60;;;4.57;;
8871;SDS011;4472;52.092;9.820;2023-07-08T03:01:56;6.57;;;4.23;;
8871;SDS011;4472;52.092;9.820;2023-07-08T03:04:44;7.20;;;4.67;;
8871;SDS011;4472;52.092;9.820;2023-07-08T03:07:31;7.00;;;4.50;;
8871;SDS011;4472;52.092;9.820;2023-07-08T03:10:18;5.37;;;4.43;;
8871;SDS011;4472;52.092;9.820;2023-07-08T03:13:06;7.93;;;4.60;;
8871;SDS011;4472;52.092;9.820;2023-07-08T03:15:53;8.63;;;4.67;;
8871;SDS011;4472;52.092;9.820;2023-07-08T03:18:41;8.17;;;4.67;;
8871;SDS011;4472;52.092;9.820;2023-07-08T03:21:33;6.63;;;4.80;;
8871;SDS011;4472;52.092;9.820;2023-07-08T03:24:20;6.37;;;4.53;;
8871;SDS011;4472;52.092;9.820;2023-07-08T03:27:08;7.67;;;4.40;;
8871;SDS011;4472;52.092;9.820;2023-07-08T03:29:55;7.93;;;4.43;;
8871;SDS011;4472;52.092;9.820;2023-07-08T03:32:42;7.50;;;4.77;;
8871;SDS011;4472;52.092;9.820;2023-07-08T03:35:29;10.40;;;5.00;;
8871;SDS011;4472;52.092;9.820;2023-07-08T03:38:18;8.63;;;4.83;;
8871;SDS011;4472;52.092;9.820;2023-07-08T03:41:05;8.97;;;5.00;;
8871;SDS011;4472;52.092;9.820;2023-07-08T03:43:52;7.67;;;5.00;;
8871;SDS011;4472;52.092;9.820;2023-07-08T03:46:39;5.30;;;4.80;;
8871;SDS011;4472;52.092;9.820;2023-07-08T03:49:28;10.73;;;5.00;;
8871;SDS011;4472;52.092;9.820;2023-07-08T03:52:15;5.23;;;4.53;;
8871;SDS011;4472;52.092;9.820;2023-07-08T03:55:05;6.03;;;4.83;;
8871;SDS011;4472;52.092;9.820;2023-07-08T03:57:55;6.70;;;4.73;;
8871;SDS011;4472;52.092;9.820;2023-07-08T04:00:42;8.13;;;4.90;;
8871;SDS011;4472;52.092;9.820;2023-07-08T04:03:29;10.03;;;5.40;;
8871;SDS011;4472;52.092;9.820;2023-07-08T04:06:16;6.27;;;4.10;;
8871;SDS011;4472;52.092;9.820;2023-07-08T04:09:04;9.37;;;4.83;;
8871;SDS011;4472;52.092;9.820;2023-07-08T04:11:53;7.33;;;4.80;;
8871;SDS011;4472;52.092;9.820;2023-07-08T04:14:40;5.67;;;4.70;;
8871;SDS011;4472;52.092;9.820;2023-07-08T04:17:28;5.80;;;4.70;;
8871;SDS011;4472;52.092;9.820;2023-07-08T04:20:16;6.80;;;4.93;;
8871;SDS011;4472;52.092;9.820;2023-07-08T04:23:04;6.30;;;4.97;;
8871;SDS011;4472;52.092;9.820;2023-07-08T04:25:52;6.40;;;4.37;;
8871;SDS011;4472;52.092;9.820;2023-07-08T04:28:42;5.87;;;4.60;;
8871;SDS011;4472;52.092;9.820;2023-07-08T04:31:30;9.47;;;4.40;;
8871;SDS011;4472;52.092;9.820;2023-07-08T04:34:17;7.10;;;4.87;;
8871;SDS011;4472;52.092;9.820;2023-07-08T04:37:05;5.30;;;4.80;;
8871;SDS011;4472;52.092;9.820;2023-07-08T04:39:52;6.53;;;4.87;;
8871;SDS011;4472;52.092;9.820;2023-07-08T04:42:39;5.20;;;4.60;;
8871;SDS011;4472;52.092;9.820;2023-07-08T04:45:28;6.00;;;4.87;;
8871;SDS011;4472;52.092;9.820;2023-07-08T04:48:15;6.53;;;4.60;;
8871;SDS011;4472;52.092;9.820;2023-07-08T04:51:04;6.40;;;4.63;;
8871;SDS011;4472;52.092;9.820;2023-07-08T04:53:51;5.27;;;4.77;;
8871;SDS011;4472;52.092;9.820;2023-07-08T04:56:40;7.10;;;5.10;;
8871;SDS011;4472;52.092;9.820;2023-07-08T04:59:28;7.40;;;4.53;;
8871;SDS011;4472;52.092;9.820;2023-07-08T05:02:21;6.43;;;5.00;;
8871;SDS011;4472;52.092;9.820;2023-07-08T05:05:08;6.63;;;4.43;;
8871;SDS011;4472;52.092;9.820;2023-07-08T05:07:55;5.33;;;4.90;;
8871;SDS011;4472;52.092;9.820;2023-07-08T05:10:42;5.87;;;4.83;;
8871;SDS011;4472;52.092;9.820;2023-07-08T05:13:29;5.40;;;4.50;;
8871;SDS011;4472;52.092;9.820;2023-07-08T05:16:16;6.93;;;4.50;;
8871;SDS011;4472;52.092;9.820;2023-07-08T05:19:05;6.63;;;5.13;;
8871;SDS011;4472;52.092;9.820;2023-07-08T05:21:52;6.17;;;5.40;;
8871;SDS011;4472;52.092;9.820;2023-07-08T05:24:39;6.40;;;4.87;;
8871;SDS011;4472;52.092;9.820;2023-07-08T05:27:27;7.07;;;5.37;;
8871;SDS011;4472;52.092;9.820;2023-07-08T05:30:15;7.67;;;5.20;;
8871;SDS011;4472;52.092;9.820;2023-07-08T05:33:03;8.60;;;5.50;;
8871;SDS011;4472;52.092;9.820;2023-07-08T05:35:52;6.73;;;5.20;;
8871;SDS011;4472;52.092;9.820;2023-07-08T05:38:40;7.07;;;5.30;;
8871;SDS011;4472;52.092;9.820;2023-07-08T05:41:27;8.93;;;5.23;;
8871;SDS011;4472;52.092;9.820;2023-07-08T05:44:14;6.77;;;5.23;;
8871;SDS011;4472;52.092;9.820;2023-07-08T05:47:01;7.27;;;5.67;;
8871;SDS011;4472;52.092;9.820;2023-07-08T05:49:49;6.37;;;5.03;;
8871;SDS011;4472;52.092;9.820;2023-07-08T05:52:37;6.33;;;5.03;;
8871;SDS011;4472;52.092;9.820;2023-07-08T05:55:24;15.73;;;5.67;;
8871;SDS011;4472;52.092;9.820;2023-07-08T05:58:11;12.27;;;5.70;;
8871;SDS011;4472;52.092;9.820;2023-07-08T06:01:00;8.97;;;5.80;;
8871;SDS011;4472;52.092;9.820;2023-07-08T06:03:47;7.43;;;4.90;;
8871;SDS011;4472;52.092;9.820;2023-07-08T06:06:35;6.40;;;5.37;;
8871;SDS011;4472;52.092;9.820;2023-07-08T06:09:23;6.13;;;5.17;;
8871;SDS011;4472;52.092;9.820;2023-07-08T06:12:11;7.90;;;5.17;;
8871;SDS011;4472;52.092;9.820;2023-07-08T06:14:58;6.93;;;4.60;;
8871;SDS011;4472;52.092;9.820;2023-07-08T06:17:45;9.07;;;5.13;;
8871;SDS011;4472;52.092;9.820;2023-07-08T06:20:32;8.07;;;5.13;;
8871;SDS011;4472;52.092;9.820;2023-07-08T06:23:19;8.77;;;5.13;;
8871;SDS011;4472;52.092;9.820;2023-07-08T06:26:08;8.97;;;5.37;;
8871;SDS011;4472;52.092;9.820;2023-07-08T06:28:55;7.63;;;4.83;;
8871;SDS011;4472;52.092;9.820;2023-07-08T06:31:42;7.77;;;5.07;;
8871;SDS011;4472;52.092;9.820;2023-07-08T06:34:30;5.70;;;4.67;;
8871;SDS011;4472;52.092;9.820;2023-07-08T06:37:17;6.70;;;4.20;;
8871;SDS011;4472;52.092;9.820;2023-07-08T06:40:04;6.03;;;4.70;;
8871;SDS011;4472;52.092;9.820;2023-07-08T06:42:54;6.03;;;4.30;;
8871;SDS011;4472;52.092;9.820;2023-07-08T06:45:41;5.17;;;4.30;;
8871;SDS011;4472;52.092;9.820;2023-07-08T06:48:29;4.00;;;3.60;;
8871;SDS011;4472;52.092;9.820;2023-07-08T06:51:16;5.97;;;4.20;;
8871;SDS011;4472;52.092;9.820;2023-07-08T06:54:03;5.60;;;4.47;;
8871;SDS011;4472;52.092;9.820;2023-07-08T06:56:56;4.93;;;4.30;;
8871;SDS011;4472;52.092;9.820;2023-07-08T06:59:44;4.83;;;3.83;;
8871;SDS011;4472;52.092;9.820;2023-07-08T07:02:32;5.67;;;4.37;;
8871;SDS011;4472;52.092;9.820;2023-07-08T07:05:19;9.17;;;4.30;;
8871;SDS011;4472;52.092;9.820;2023-07-08T07:08:07;6.17;;;4.27;;
8871;SDS011;4472;52.092;9.820;2023-07-08T07:10:54;5.50;;;4.00;;
8871;SDS011;4472;52.092;9.820;2023-07-08T07:13:41;5.97;;;4.10;;
8871;SDS011;4472;52.092;9.820;2023-07-08T07:16:30;5.10;;;3.70;;
8871;SDS011;4472;52.092;9.820;2023-07-08T07:19:17;4.13;;;3.73;;
8871;SDS011;4472;52.092;9.820;2023-07-08T07:22:05;5.83;;;4.00;;
8871;SDS011;4472;52.092;9.820;2023-07-08T07:24:53;5.33;;;4.10;;
8871;SDS011;4472;52.092;9.820;2023-07-08T07:27:40;5.67;;;4.17;;
8871;SDS011;4472;52.092;9.820;2023-07-08T07:30:27;5.47;;;4.37;;
8871;SDS011;4472;52.092;9.820;2023-07-08T07:33:16;5.10;;;4.10;;
8871;SDS011;4472;52.092;9.820;2023-07-08T07:36:03;4.70;;;4.10;;
8871;SDS011;4472;52.092;9.820;2023-07-08T07:38:50;5.67;;;4.20;;
8871;SDS011;4472;52.092;9.820;2023-07-08T07:41:37;8.17;;;4.20;;
8871;SDS011;4472;52.092;9.820;2023-07-08T07:44:24;7.23;;;4.17;;
8871;SDS011;4472;52.092;9.820;2023-07-08T07:47:11;4.80;;;3.73;;
8871;SDS011;4472;52.092;9.820;2023-07-08T07:50:00;5.50;;;4.03;;
8871;SDS011;4472;52.092;9.820;2023-07-08T07:52:47;5.13;;;3.90;;
8871;SDS011;4472;52.092;9.820;2023-07-08T07:55:34;6.63;;;3.90;;
8871;SDS011;4472;52.092;9.820;2023-07-08T07:58:21;6.37;;;4.10;;
8871;SDS011;4472;52.092;9.820;2023-07-08T08:01:09;4.63;;;3.97;;
8871;SDS011;4472;52.092;9.820;2023-07-08T08:03:58;5.03;;;4.10;;
8871;SDS011;4472;52.092;9.820;2023-07-08T08:06:47;6.17;;;4.00;;
8871;SDS011;4472;52.092;9.820;2023-07-08T08:09:34;4.17;;;3.83;;
8871;SDS011;4472;52.092;9.820;2023-07-08T08:12:21;4.93;;;3.70;;
8871;SDS011;4472;52.092;9.820;2023-07-08T08:15:10;3.80;;;3.50;;
8871;SDS011;4472;52.092;9.820;2023-07-08T08:17:57;4.93;;;3.73;;
8871;SDS011;4472;52.092;9.820;2023-07-08T08:20:44;6.03;;;3.80;;
8871;SDS011;4472;52.092;9.820;2023-07-08T08:23:32;7.73;;;3.90;;
8871;SDS011;4472;52.092;9.820;2023-07-08T08:26:19;4.77;;;3.33;;
8871;SDS011;4472;52.092;9.820;2023-07-08T08:29:07;5.30;;;3.50;;
8871;SDS011;4472;52.092;9.820;2023-07-08T08:31:57;5.20;;;3.23;;
8871;SDS011;4472;52.092;9.820;2023-07-08T08:34:44;6.13;;;3.30;;
8871;SDS011;4472;52.092;9.820;2023-07-08T08:37:31;5.13;;;3.80;;
8871;SDS011;4472;52.092;9.820;2023-07-08T08:40:20;4.03;;;3.30;;
8871;SDS011;4472;52.092;9.820;2023-07-08T08:43:09;4.60;;;3.30;;
8871;SDS011;4472;52.092;9.820;2023-07-08T08:46:00;4.20;;;3.80;;
8871;SDS011;4472;52.092;9.820;2023-07-08T08:48:51;4.37;;;3.40;;
8871;SDS011;4472;52.092;9.820;2023-07-08T08:51:45;4.23;;;3.57;;
8871;SDS011;4472;52.092;9.820;2023-07-08T08:54:32;6.20;;;3.63;;
8871;SDS011;4472;52.092;9.820;2023-07-08T08:57:31;7.23;;;3.60;;
8871;SDS011;4472;52.092;9.820;2023-07-08T09:00:24;4.17;;;3.70;;
8871;SDS011;4472;52.092;9.820;2023-07-08T09:03:20;5.37;;;3.83;;
8871;SDS011;4472;52.092;9.820;2023-07-08T09:06:18;6.83;;;3.83;;
8871;SDS011;4472;52.092;9.820;2023-07-08T09:09:09;5.03;;;3.40;;
8871;SDS011;4472;52.092;9.820;2023-07-08T09:12:03;6.47;;;3.47;;
8871;SDS011;4472;52.092;9.820;2023-07-08T09:14:53;3.93;;;3.40;;
8871;SDS011;4472;52.092;9.820;2023-07-08T09:17:40;5.30;;;3.67;;
8871;SDS011;4472;52.092;9.820;2023-07-08T09:20:28;4.50;;;3.90;;
8871;SDS011;4472;52.092;9.820;2023-07-08T09:23:17;4.13;;;3.73;;
8871;SDS011;4472;52.092;9.820;2023-07-08T09:26:10;5.20;;;4.20;;
8871;SDS011;4472;52.092;9.820;2023-07-08T09:29:07;5.20;;;3.77;;
8871;SDS011;4472;52.092;9.820;2023-07-08T09:31:56;5.80;;;3.80;;
8871;SDS011;4472;52.092;9.820;2023-07-08T09:34:46;4.17;;;3.40;;
8871;SDS011;4472;52.092;9.820;2023-07-08T09:37:37;3.93;;;3.60;;
8871;SDS011;4472;52.092;9.820;2023-07-08T09:40:28;6.70;;;3.87;;
8871;SDS011;4472;52.092;9.820;2023-07-08T09:43:20;4.00;;;3.60;;
8871;SDS011;4472;52.092;9.820;2023-07-08T09:46:12;5.40;;;3.50;;
8871;SDS011;4472;52.092;9.820;2023-07-08T09:49:16;6.95;;;3.90;;
8871;SDS011;4472;52.092;9.820;2023-07-08T09:52:05;5.28;;;3.80;;
8871;SDS011;4472;52.092;9.820;2023-07-08T09:54:53;4.90;;;3.60;;
8871;SDS011;4472;52.092;9.820;2023-07-08T09:57:40;4.30;;;3.90;;
8871;SDS011;4472;52.092;9.820;2023-07-08T10:00:32;5.97;;;4.00;;
8871;SDS011;4472;52.092;9.820;2023-07-08T10:03:25;6.50;;;3.80;;
8871;SDS011;4472;52.092;9.820;2023-07-08T10:06:18;6.13;;;3.75;;
8871;SDS011;4472;52.092;9.820;2023-07-08T10:09:09;4.03;;;3.45;;
8871;SDS011;4472;52.092;9.820;2023-07-08T10:12:04;4.20;;;3.80;;
8871;SDS011;4472;52.092;9.820;2023-07-08T10:14:56;6.50;;;4.00;;
8871;SDS011;4472;52.092;9.820;2023-07-08T10:17:48;5.75;;;3.67;;
8871;SDS011;4472;52.092;9.820;2023-07-08T10:20:37;6.38;;;3.88;;
8871;SDS011;4472;52.092;9.820;2023-07-08T10:23:39;5.32;;;3.92;;
8871;SDS011;4472;52.092;9.820;2023-07-08T10:26:33;5.82;;;3.70;;
8871;SDS011;4472;52.092;9.820;2023-07-08T10:29:23;4.18;;;3.78;;
8871;SDS011;4472;52.092;9.820;2023-07-08T10:32:18;5.45;;;3.83;;
8871;SDS011;4472;52.092;9.820;2023-07-08T10:35:16;4.70;;;3.70;;
8871;SDS011;4472;52.092;9.820;2023-07-08T10:38:13;6.35;;;4.07;;
8871;SDS011;4472;52.092;9.820;2023-07-08T10:41:18;5.68;;;3.72;;
8871;SDS011;4472;52.092;9.820;2023-07-08T10:44:17;5.53;;;3.70;;
8871;SDS011;4472;52.092;9.820;2023-07-08T10:47:11;3.70;;;3.40;;
8871;SDS011;4472;52.092;9.820;2023-07-08T10:50:15;5.20;;;3.85;;
8871;SDS011;4472;52.092;9.820;2023-07-08T10:53:17;6.80;;;4.00;;
8871;SDS011;4472;52.092;9.820;2023-07-08T10:56:16;6.32;;;4.03;;
8871;SDS011;4472;52.092;9.820;2023-07-08T10:59:13;5.22;;;3.90;;
8871;SDS011;4472;52.092;9.820;2023-07-08T11:02:28;4.65;;;4.20;;
8871;SDS011;4472;52.092;9.820;2023-07-08T11:05:33;4.80;;;4.20;;
8871;SDS011;4472;52.092;9.820;2023-07-08T11:08:29;4.55;;;3.70;;
8871;SDS011;4472;52.092;9.820;2023-07-08T11:11:26;4.78;;;4.13;;
8871;SDS011;4472;52.092;9.820;2023-07-08T11:14:20;6.03;;;4.30;;
8871;SDS011;4472;52.092;9.820;2023-07-08T11:17:14;4.07;;;3.78;;
8871;SDS011;4472;52.092;9.820;2023-07-08T11:20:10;4.65;;;4.20;;
8871;SDS011;4472;52.092;9.820;2023-07-08T11:23:03;5.13;;;4.07;;
8871;SDS011;4472;52.092;9.820;2023-07-08T11:26:11;5.65;;;4.40;;
8871;SDS011;4472;52.092;9.820;2023-07-08T11:29:09;4.70;;;4.30;;
8871;SDS011;4472;52.092;9.820;2023-07-08T11:32:02;5.63;;;4.75;;
8871;SDS011;4472;52.092;9.820;2023-07-08T11:34:51;5.50;;;4.57;;
8871;SDS011;4472;52.092;9.820;2023-07-08T11:37:40;10.23;;;5.10;;
8871;SDS011;4472;52.092;9.820;2023-07-08T11:40:27;10.02;;;5.53;;
8871;SDS011;4472;52.092;9.820;2023-07-08T11:43:14;6.22;;;4.90;;
8871;SDS011;4472;52.092;9.820;2023-07-08T11:46:05;5.45;;;4.35;;
8871;SDS011;4472;52.092;9.820;2023-07-08T11:48:53;5.03;;;4.50;;
8871;SDS011;4472;52.092;9.820;2023-07-08T11:51:42;5.25;;;4.30;;
8871;SDS011;4472;52.092;9.820;2023-07-08T11:54:32;6.15;;;4.70;;
8871;SDS011;4472;52.092;9.820;2023-07-08T11:57:25;5.80;;;4.55;;
8871;SDS011;4472;52.092;9.820;2023-07-08T12:00:19;4.72;;;4.32;;
8871;SDS011;4472;52.092;9.820;2023-07-08T12:03:21;4.55;;;4.00;;
8871;SDS011;4472;52.092;9.820;2023-07-08T12:09:29;4.30;;;3.88;;
8871;SDS011;4472;52.092;9.820;2023-07-08T12:12:24;5.78;;;4.65;;
8871;SDS011;4472;52.092;9.820;2023-07-08T12:15:15;4.43;;;3.72;;
8871;SDS011;4472;52.092;9.820;2023-07-08T12:18:10;4.93;;;4.47;;
8871;SDS011;4472;52.092;9.820;2023-07-08T12:21:02;5.03;;;4.25;;
8871;SDS011;4472;52.092;9.820;2023-07-08T12:23:49;5.38;;;4.05;;
8871;SDS011;4472;52.092;9.820;2023-07-08T12:26:36;5.63;;;4.10;;
8871;SDS011;4472;52.092;9.820;2023-07-08T12:29:24;7.00;;;3.63;;
8871;SDS011;4472;52.092;9.820;2023-07-08T12:32:12;8.32;;;4.35;;
8871;SDS011;4472;52.092;9.820;2023-07-08T12:35:00;4.75;;;3.90;;
8871;SDS011;4472;52.092;9.820;2023-07-08T12:37:51;4.15;;;3.83;;
8871;SDS011;4472;52.092;9.820;2023-07-08T12:40:40;4.13;;;3.83;;
8871;SDS011;4472;52.092;9.820;2023-07-08T12:43:27;6.80;;;3.72;;
8871;SDS011;4472;52.092;9.820;2023-07-08T12:46:16;5.85;;;4.10;;
8871;SDS011;4472;52.092;9.820;2023-07-08T12:49:04;4.40;;;4.00;;
8871;SDS011;4472;52.092;9.820;2023-07-08T12:51:51;6.55;;;3.63;;
8871;SDS011;4472;52.092;9.820;2023-07-08T12:54:39;5.75;;;3.83;;
8871;SDS011;4472;52.092;9.820;2023-07-08T12:57:27;4.53;;;3.80;;
8871;SDS011;4472;52.092;9.820;2023-07-08T13:00:15;4.50;;;4.10;;
8871;SDS011;4472;52.092;9.820;2023-07-08T13:03:08;5.85;;;4.35;;
8871;SDS011;4472;52.092;9.820;2023-07-08T13:06:00;5.00;;;4.00;;
8871;SDS011;4472;52.092;9.820;2023-07-08T13:08:48;4.75;;;3.90;;
8871;SDS011;4472;52.092;9.820;2023-07-08T13:11:38;4.22;;;3.90;;
8871;SDS011;4472;52.092;9.820;2023-07-08T13:14:28;4.80;;;4.03;;
8871;SDS011;4472;52.092;9.820;2023-07-08T13:17:16;5.57;;;4.25;;
8871;SDS011;4472;52.092;9.820;2023-07-08T13:20:04;5.85;;;4.00;;
8871;SDS011;4472;52.092;9.820;2023-07-08T13:22:53;5.00;;;3.85;;
8871;SDS011;4472;52.092;9.820;2023-07-08T13:25:41;7.70;;;5.00;;
8871;SDS011;4472;52.092;9.820;2023-07-08T13:28:36;4.68;;;4.20;;
8871;SDS011;4472;52.092;9.820;2023-07-08T13:31:24;5.22;;;3.58;;
8871;SDS011;4472;52.092;9.820;2023-07-08T13:34:19;4.93;;;4.18;;
8871;SDS011;4472;52.092;9.820;2023-07-08T13:37:10;5.57;;;3.80;;
8871;SDS011;4472;52.092;9.820;2023-07-08T13:39:59;7.65;;;3.80;;
8871;SDS011;4472;52.092;9.820;2023-07-08T13:42:47;6.13;;;4.18;;
8871;SDS011;4472;52.092;9.820;2023-07-08T13:45:37;5.25;;;4.55;;
8871;SDS011;4472;52.092;9.820;2023-07-08T13:48:34;4.85;;;4.35;;
8871;SDS011;4472;52.092;9.820;2023-07-08T13:51:24;4.80;;;4.40;;
8871;SDS011;4472;52.092;9.820;2023-07-08T13:54:20;4.63;;;4.22;;
8871;SDS011;4472;52.092;9.820;2023-07-08T13:57:10;4.43;;;4.03;;
8871;SDS011;4472;52.092;9.820;2023-07-08T13:59:58;7.50;;;4.70;;
8871;SDS011;4472;52.092;9.820;2023-07-08T14:02:47;5.47;;;4.20;;
8871;SDS011;4472;52.092;9.820;2023-07-08T14:05:36;5.82;;;4.00;;
8871;SDS011;4472;52.092;9.820;2023-07-08T14:08:23;5.63;;;4.32;;
8871;SDS011;4472;52.092;9.820;2023-07-08T14:11:10;5.40;;;4.90;;
8871;SDS011;4472;52.092;9.820;2023-07-08T14:13:58;5.32;;;4.82;;
8871;SDS011;4472;52.092;9.820;2023-07-08T14:16:45;7.25;;;4.72;;
8871;SDS011;4472;52.092;9.820;2023-07-08T14:19:36;5.53;;;4.60;;
8871;SDS011;4472;52.092;9.820;2023-07-08T14:22:24;4.38;;;3.90;;
8871;SDS011;4472;52.092;9.820;2023-07-08T14:25:13;5.13;;;4.03;;
8871;SDS011;4472;52.092;9.820;2023-07-08T14:28:02;7.47;;;4.38;;
8871;SDS011;4472;52.092;9.820;2023-07-08T14:30:51;4.97;;;4.47;;
8871;SDS011;4472;52.092;9.820;2023-07-08T14:33:38;4.65;;;4.25;;
8871;SDS011;4472;52.092;9.820;2023-07-08T14:36:27;5.75;;;3.90;;
8871;SDS011;4472;52.092;9.820;2023-07-08T14:39:14;6.57;;;4.70;;
8871;SDS011;4472;52.092;9.820;2023-07-08T14:42:04;4.95;;;4.47;;
8871;SDS011;4472;52.092;9.820;2023-07-08T14:44:55;5.07;;;4.57;;
8871;SDS011;4472;52.092;9.820;2023-07-08T14:47:43;6.97;;;4.13;;
8871;SDS011;4472;52.092;9.820;2023-07-08T14:50:30;5.93;;;4.40;;
8871;SDS011;4472;52.092;9.820;2023-07-08T14:53:18;5.05;;;4.55;;
8871;SDS011;4472;52.092;9.820;2023-07-08T14:56:08;4.80;;;4.20;;
8871;SDS011;4472;52.092;9.820;2023-07-08T14:59:00;5.53;;;4.88;;
8871;SDS011;4472;52.092;9.820;2023-07-08T15:01:48;5.78;;;4.78;;
8871;SDS011;4472;52.092;9.820;2023-07-08T15:04:35;6.75;;;4.78;;
8871;SDS011;4472;52.092;9.820;2023-07-08T15:07:22;5.43;;;4.65;;
8871;SDS011;4472;52.092;9.820;2023-07-08T15:10:11;7.20;;;4.85;;
8871;SDS011;4472;52.092;9.820;2023-07-08T15:12:58;7.70;;;4.80;;
8871;SDS011;4472;52.092;9.820;2023-07-08T15:15:46;5.70;;;4.45;;
8871;SDS011;4472;52.092;9.820;2023-07-08T15:18:34;5.28;;;4.28;;
8871;SDS011;4472;52.092;9.820;2023-07-08T15:21:21;4.63;;;4.20;;
8871;SDS011;4472;52.092;9.820;2023-07-08T15:24:08;5.10;;;4.60;;
8871;SDS011;4472;52.092;9.820;2023-07-08T15:26:59;5.05;;;4.55;;
8871;SDS011;4472;52.092;9.820;2023-07-08T15:29:46;5.57;;;4.45;;
8871;SDS011;4472;52.092;9.820;2023-07-08T15:32:34;7.80;;;4.20;;
8871;SDS011;4472;52.092;9.820;2023-07-08T15:35:21;5.60;;;4.30;;
8871;SDS011;4472;52.092;9.820;2023-07-08T15:38:10;5.85;;;4.25;;
8871;SDS011;4472;52.092;9.820;2023-07-08T15:40:57;9.35;;;4.32;;
8871;SDS011;4472;52.092;9.820;2023-07-08T15:43:46;5.22;;;4.72;;
8871;SDS011;4472;52.092;9.820;2023-07-08T15:46:34;4.43;;;4.13;;
8871;SDS011;4472;52.092;9.820;2023-07-08T15:49:25;4.60;;;4.20;;
8871;SDS011;4472;52.092;9.820;2023-07-08T15:52:15;4.50;;;4.10;;
8871;SDS011;4472;52.092;9.820;2023-07-08T15:55:03;6.10;;;4.13;;
8871;SDS011;4472;52.092;9.820;2023-07-08T15:57:53;4.78;;;4.38;;
8871;SDS011;4472;52.092;9.820;2023-07-08T16:00:48;4.50;;;4.10;;
8871;SDS011;4472;52.092;9.820;2023-07-08T16:03:35;4.88;;;4.20;;
8871;SDS011;4472;52.092;9.820;2023-07-08T16:06:24;4.47;;;4.07;;
8871;SDS011;4472;52.092;9.820;2023-07-08T16:09:12;4.68;;;4.15;;
8871;SDS011;4472;52.092;9.820;2023-07-08T16:11:59;4.55;;;3.95;;
8871;SDS011;4472;52.092;9.820;2023-07-08T16:14:46;5.95;;;4.40;;
8871;SDS011;4472;52.092;9.820;2023-07-08T16:17:35;7.00;;;4.78;;
8871;SDS011;4472;52.092;9.820;2023-07-08T16:20:23;4.95;;;3.75;;
8871;SDS011;4472;52.092;9.820;2023-07-08T16:23:12;5.13;;;4.20;;
8871;SDS011;4472;52.092;9.820;2023-07-08T16:25:59;6.18;;;4.20;;
8871;SDS011;4472;52.092;9.820;2023-07-08T16:28:48;4.40;;;4.00;;
8871;SDS011;4472;52.092;9.820;2023-07-08T16:31:36;7.55;;;4.00;;
8871;SDS011;4472;52.092;9.820;2023-07-08T16:34:24;5.95;;;4.47;;
8871;SDS011;4472;52.092;9.820;2023-07-08T16:37:11;5.47;;;3.90;;
8871;SDS011;4472;52.092;9.820;2023-07-08T16:39:58;11.45;;;4.35;;
8871;SDS011;4472;52.092;9.820;2023-07-08T16:42:46;4.70;;;4.22;;
8871;SDS011;4472;52.092;9.820;2023-07-08T16:45:34;5.15;;;4.38;;
8871;SDS011;4472;52.092;9.820;2023-07-08T16:48:21;7.30;;;4.35;;
8871;SDS011;4472;52.092;9.820;2023-07-08T16:51:11;7.03;;;4.18;;
8871;SDS011;4472;52.092;9.820;2023-07-08T16:54:01;6.40;;;4.13;;
8871;SDS011;4472;52.092;9.820;2023-07-08T16:56:55;4.68;;;3.88;;
8871;SDS011;4472;52.092;9.820;2023-07-08T16:59:42;6.30;;;4.22;;
8871;SDS011;4472;52.092;9.820;2023-07-08T17:02:30;4.30;;;3.90;;
8871;SDS011;4472;52.092;9.820;2023-07-08T17:05:19;4.90;;;4.25;;
8871;SDS011;4472;52.092;9.820;2023-07-08T17:08:10;5.28;;;4.43;;
8871;SDS011;4472;52.092;9.820;2023-07-08T17:10:59;7.30;;;4.35;;
8871;SDS011;4472;52.092;9.820;2023-07-08T17:13:46;6.93;;;4.72;;
8871;SDS011;4472;52.092;9.820;2023-07-08T17:16:34;11.38;;;5.18;;
8871;SDS011;4472;52.092;9.820;2023-07-08T17:19:22;5.47;;;4.57;;
8871;SDS011;4472;52.092;9.820;2023-07-08T17:22:09;11.30;;;4.70;;
8871;SDS011;4472;52.092;9.820;2023-07-08T17:24:58;5.93;;;4.85;;
8871;SDS011;4472;52.092;9.820;2023-07-08T17:27:45;7.03;;;5.00;;
8871;SDS011;4472;52.092;9.820;2023-07-08T17:30:33;5.70;;;5.07;;
8871;SDS011;4472;52.092;9.820;2023-07-08T17:33:20;6.00;;;4.68;;
8871;SDS011;4472;52.092;9.820;2023-07-08T17:36:09;9.55;;;5.05;;